Time;durP1;ratioP1;P1;durP2;ratioP2;P2;SDS_P1;SDS_P2;PMS_P1;PMS_P2;Temp;Humidity;BMP_temperature;BMP_pressure;BME280_temperature;BME280_humidity;BME280_pressure;Samples;Min_cycle;Max_cycle;Signal;HPM_P1;HPM_P2
2022/09/03 00:03:00;;;;;;;7.30;2.70;;;;;;;11.94;63.68;100539.45;2190626;80;21021;-70
2022/09/03 00:06:21;;;;;;;4.08;2.75;;;;;;;11.76;63.91;100537.39;2164133;79;20982;-70
2022/09/03 00:09:30;;;;;;;6.15;3.15;;;;;;;11.61;64.15;100531.90;2193620;79;21009;-73
2022/09/03 00:12:36;;;;;;;6.92;2.90;;;;;;;11.51;64.32;100535.19;2192518;79;21007;-70
2022/09/03 00:15:39;;;;;;;5.65;2.90;;;;;;;11.43;64.48;100539.98;2191812;80;21536;-70
2022/09/03 00:19:00;;;;;;;4.30;2.87;;;;;;;11.41;64.65;100540.16;2196272;79;21006;-70
2022/09/03 00:22:15;;;;;;;6.22;2.92;;;;;;;11.35;64.77;100533.34;2193790;79;20974;-71
2022/09/03 00:25:40;;;;;;;5.60;3.08;;;;;;;11.29;64.91;100532.16;2191009;79;21102;-71
2022/09/03 00:29:02;;;;;;;5.80;2.55;;;;;;;11.26;65.11;100533.78;2188304;79;20967;-70
2022/09/03 00:32:09;;;;;;;5.60;2.98;;;;;;;11.26;65.11;100530.30;2187004;79;20979;-70
2022/09/03 00:35:19;;;;;;;6.60;2.98;;;;;;;11.19;65.28;100538.09;2189628;79;21011;-71
2022/09/03 00:38:23;;;;;;;5.72;3.17;;;;;;;11.13;65.48;100534.25;2193169;80;21056;-70
2022/09/03 00:41:45;;;;;;;4.33;3.45;;;;;;;11.07;65.57;100530.09;2191494;80;21062;-70
2022/09/03 00:45:00;;;;;;;3.95;2.77;;;;;;;11.03;65.73;100524.23;2196252;80;21139;-71
2022/09/03 00:48:21;;;;;;;3.98;3.00;;;;;;;10.98;65.80;100527.39;2191788;80;21014;-70
2022/09/03 00:51:46;;;;;;;6.03;3.30;;;;;;;10.95;65.82;100526.39;2148076;79;20958;-70
2022/09/03 00:55:01;;;;;;;7.67;3.00;;;;;;;10.90;66.12;100526.53;2182645;80;21018;-73
2022/09/03 00:58:22;;;;;;;6.45;3.37;;;;;;;10.84;66.23;100523.16;2194978;80;20995;-69
2022/09/03 01:02:15;;;;;;;9.38;3.72;;;;;;;10.81;66.33;100524.30;2188406;80;20985;-70
2022/09/03 01:05:45;;;;;;;8.50;3.62;;;;;;;10.73;66.44;100517.15;2191522;79;21034;-70
2022/09/03 01:09:25;;;;;;;5.72;3.75;;;;;;;10.57;66.57;100511.75;2193933;79;21032;-75
2022/09/03 01:12:41;;;;;;;6.17;3.85;;;;;;;10.55;67.08;100525.66;2188415;80;21576;-70
2022/09/03 01:16:06;;;;;;;14.78;4.12;;;;;;;10.55;67.08;100525.66;2197186;79;21069;-72
2022/09/03 01:19:36;;;;;;;13.72;4.42;;;;;;;10.25;67.25;100507.87;2192659;79;21535;-71
2022/09/03 01:23:10;;;;;;;5.95;3.85;;;;;;;10.34;67.20;100526.53;2170150;79;21094;-71
2022/09/03 01:26:23;;;;;;;8.68;3.98;;;;;;;10.26;67.09;100531.23;2190441;79;21540;-70
2022/09/03 01:29:48;;;;;;;7.37;3.92;;;;;;;10.26;67.09;100531.23;2190449;79;20975;-70
2022/09/03 01:33:18;;;;;;;5.58;3.60;;;;;;;10.19;67.42;100531.04;2184277;79;20995;-70
2022/09/03 01:36:28;;;;;;;5.27;3.80;;;;;;;10.10;67.53;100530.11;2193269;80;21629;-71
2022/09/03 01:39:50;;;;;;;5.43;3.70;;;;;;;10.07;67.74;100528.27;2195496;79;21270;-70
2022/09/03 01:43:22;;;;;;;4.25;3.47;;;;;;;10.02;68.19;100534.52;2190303;79;21515;-70
2022/09/03 01:46:29;;;;;;;8.93;3.85;;;;;;;10.02;68.11;100535.84;2188259;79;21497;-69
2022/09/03 01:49:41;;;;;;;7.35;3.47;;;;;;;9.99;68.22;100538.80;2193816;80;21109;-70
2022/09/03 01:52:57;;;;;;;8.15;3.52;;;;;;;9.96;68.36;100532.48;2188019;80;20941;-70
2022/09/03 01:56:44;;;;;;;8.13;3.92;;;;;;;9.93;68.39;100535.44;2188107;80;21039;-71
2022/09/03 01:59:53;;;;;;;6.22;3.47;;;;;;;9.92;68.53;100534.61;2192107;79;21055;-69
2022/09/03 02:02:54;;;;;;;5.90;3.50;;;;;;;9.82;68.52;100525.40;2195326;80;20992;-69
2022/09/03 02:05:55;;;;;;;5.08;3.60;;;;;;;9.77;68.73;100526.38;2201770;79;20962;-69
2022/09/03 02:08:57;;;;;;;4.87;3.52;;;;;;;9.71;68.82;100520.33;2183383;79;21016;-70
2022/09/03 02:12:06;;;;;;;6.97;3.45;;;;;;;9.68;68.96;100513.18;2187273;79;21077;-71
2022/09/03 02:15:12;;;;;;;7.35;3.95;;;;;;;9.63;69.00;100511.00;2197435;79;21024;-70
2022/09/03 02:18:19;;;;;;;6.20;3.47;;;;;;;9.56;69.18;100510.75;2201879;79;21427;-71
2022/09/03 02:21:24;;;;;;;5.17;3.37;;;;;;;9.53;69.28;100514.20;2185595;79;21508;-69
2022/09/03 02:24:27;;;;;;;9.10;3.20;;;;;;;9.50;69.42;100523.78;2193426;79;21391;-69
2022/09/03 02:27:28;;;;;;;8.53;3.47;;;;;;;9.43;69.45;100523.05;2194549;80;21489;-71
2022/09/03 02:30:29;;;;;;;7.72;3.72;;;;;;;9.40;69.45;100521.17;2188819;80;21021;-70
2022/09/03 02:33:40;;;;;;;5.20;3.35;;;;;;;9.36;69.56;100518.00;2186639;80;20975;-69
2022/09/03 02:36:45;;;;;;;4.90;3.42;;;;;;;9.35;69.67;100517.67;2196085;80;21565;-70
2022/09/03 02:39:46;;;;;;;5.95;3.87;;;;;;;9.33;69.67;100523.59;2187705;79;20993;-69
2022/09/03 02:42:48;;;;;;;5.72;3.47;;;;;;;9.29;69.76;100524.89;2190576;80;21567;-69
2022/09/03 02:45:54;;;;;;;7.62;3.52;;;;;;;9.26;69.79;100524.33;2194616;79;21515;-69
2022/09/03 02:48:55;;;;;;;6.45;4.03;;;;;;;9.25;69.92;100516.06;2192966;79;20946;-70
2022/09/03 02:52:05;;;;;;;9.68;3.65;;;;;;;9.20;69.95;100519.14;2191178;79;20964;-70
2022/09/03 02:55:07;;;;;;;6.58;3.40;;;;;;;9.17;70.00;100521.59;2171865;79;21502;-69
2022/09/03 02:58:08;;;;;;;12.98;4.28;;;;;;;9.11;69.97;100511.59;2197218;79;21002;-69
2022/09/03 03:01:09;;;;;;;11.28;4.22;;;;;;;9.05;70.08;100512.69;2193774;80;20998;-70
2022/09/03 03:04:10;;;;;;;5.42;3.95;;;;;;;9.01;70.11;100508.65;2194003;79;21015;-69
2022/09/03 03:07:11;;;;;;;9.28;4.25;;;;;;;8.97;70.09;100512.91;2192282;79;21066;-69
2022/09/03 03:10:12;;;;;;;5.03;3.12;;;;;;;8.93;70.11;100514.20;2189567;80;21020;-69
2022/09/03 03:13:14;;;;;;;8.20;4.03;;;;;;;8.91;70.14;100518.80;2187497;79;21030;-70
2022/09/03 03:16:16;;;;;;;8.30;2.80;;;;;;;8.86;70.12;100525.02;2184995;80;21029;-69
2022/09/03 03:19:17;;;;;;;5.50;3.25;;;;;;;8.78;70.17;100527.55;2190779;79;21022;-69
2022/09/03 03:22:18;;;;;;;4.33;2.83;;;;;;;8.71;70.24;100523.83;2194144;79;21025;-69
2022/09/03 03:25:22;;;;;;;8.33;2.75;;;;;;;8.65;70.25;100527.06;2191045;80;21027;-69
2022/09/03 03:28:23;;;;;;;8.00;3.17;;;;;;;8.59;70.26;100533.76;2189050;79;20994;-70
2022/09/03 03:31:24;;;;;;;7.50;3.50;;;;;;;8.52;70.47;100531.33;2193679;79;21516;-71
2022/09/03 03:34:25;;;;;;;10.65;3.87;;;;;;;8.47;70.70;100534.39;2191189;79;20994;-70
2022/09/03 03:37:26;;;;;;;10.10;3.98;;;;;;;8.45;70.88;100525.79;2193628;80;21532;-69
2022/09/03 03:40:27;;;;;;;8.40;3.85;;;;;;;8.46;70.73;100527.94;2194378;79;21034;-69
2022/09/03 03:43:28;;;;;;;6.60;3.85;;;;;;;8.40;71.12;100521.41;2192238;79;20986;-69
2022/09/03 03:46:34;;;;;;;7.75;3.30;;;;;;;8.38;70.94;100528.61;2189755;79;20991;-71
2022/09/03 03:49:35;;;;;;;9.53;3.77;;;;;;;8.33;70.83;100526.88;2190090;79;20998;-70
2022/09/03 03:52:36;;;;;;;12.58;4.05;;;;;;;8.29;71.15;100521.55;2188609;79;21577;-71
2022/09/03 03:55:38;;;;;;;5.05;3.20;;;;;;;8.23;71.23;100522.94;2189411;79;20979;-69
2022/09/03 03:58:43;;;;;;;4.50;3.20;;;;;;;8.19;71.24;100525.51;2190480;79;21517;-69
2022/09/03 04:01:44;;;;;;;9.30;4.22;;;;;;;8.13;71.15;100528.72;2192703;79;20922;-70
2022/09/03 04:04:45;;;;;;;5.67;3.08;;;;;;;8.12;71.56;100527.55;2192874;80;21012;-68
2022/09/03 04:07:46;;;;;;;6.28;3.40;;;;;;;8.08;71.47;100523.88;2193555;79;20990;-69
2022/09/03 04:10:47;;;;;;;5.50;3.55;;;;;;;8.03;71.81;100522.14;2197014;79;21023;-69
2022/09/03 04:13:50;;;;;;;7.30;3.52;;;;;;;8.04;72.12;100531.72;2191479;79;21026;-70
2022/09/03 04:16:51;;;;;;;9.28;3.50;;;;;;;8.03;72.17;100523.45;2189488;79;21540;-70
2022/09/03 04:19:52;;;;;;;6.97;4.00;;;;;;;8.03;72.36;100519.98;2193549;79;21035;-70
2022/09/03 04:22:53;;;;;;;9.00;3.75;;;;;;;8.03;72.38;100522.63;2183108;80;21133;-69
2022/09/03 04:25:54;;;;;;;7.80;3.77;;;;;;;8.05;72.49;100522.84;2189233;80;21026;-70
2022/09/03 04:28:55;;;;;;;7.83;4.05;;;;;;;8.13;72.52;100522.11;2188438;80;21022;-69
2022/09/03 04:35:17;;;;;;;;;;;;;;;8.43;72.47;100526.41;2075889;84;21042;-70
2022/09/03 04:38:18;;;;;;;8.65;4.53;;;;;;;8.49;72.34;100531.13;2083776;84;20155;-70
2022/09/03 04:41:24;;;;;;;7.95;4.67;;;;;;;8.52;72.28;100525.55;2178574;79;20967;-69
2022/09/03 04:44:25;;;;;;;5.95;4.00;;;;;;;8.58;72.27;100521.98;2187877;79;21006;-70
2022/09/03 04:47:27;;;;;;;9.08;4.62;;;;;;;8.61;72.31;100522.52;2196597;79;21513;-70
2022/09/03 04:50:31;;;;;;;4.70;3.80;;;;;;;8.73;72.42;100531.14;2193692;79;21682;-72
2022/09/03 04:53:39;;;;;;;8.70;4.03;;;;;;;9.00;72.64;100538.75;2186903;79;21034;-70
2022/09/03 04:56:40;;;;;;;5.92;3.90;;;;;;;9.43;72.78;100542.06;2188915;80;21101;-69
2022/09/03 04:59:41;;;;;;;8.40;3.77;;;;;;;9.87;72.53;100535.56;2197163;79;21022;-68
2022/09/03 05:02:45;;;;;;;6.85;4.20;;;;;;;10.35;72.38;100534.81;2202023;79;21053;-69
2022/09/03 05:05:54;;;;;;;9.30;4.67;;;;;;;10.83;72.00;100532.12;2192454;79;20942;-69
2022/09/03 05:08:58;;;;;;;9.15;4.53;;;;;;;11.41;71.47;100534.02;2192252;79;20975;-69
2022/09/03 05:12:00;;;;;;;10.00;5.05;;;;;;;11.96;71.08;100535.28;2192026;80;21643;-69
2022/09/03 05:15:01;;;;;;;7.83;4.05;;;;;;;12.62;70.52;100536.08;2172839;80;20955;-70
2022/09/03 05:18:02;;;;;;;12.98;6.42;;;;;;;13.38;69.95;100534.66;2188750;80;20998;-70
2022/09/03 05:21:10;;;;;;;10.30;5.08;;;;;;;14.03;68.80;100529.39;2193830;79;21485;-70
2022/09/03 05:24:13;;;;;;;6.53;3.70;;;;;;;14.53;68.24;100531.98;2190629;79;21595;-69
2022/09/03 05:27:16;;;;;;;7.92;4.05;;;;;;;15.01;66.99;100539.95;2187142;79;20990;-69
2022/09/03 05:30:17;;;;;;;5.75;3.90;;;;;;;15.37;66.20;100535.64;2191692;79;21077;-68
2022/09/03 05:33:19;;;;;;;6.10;3.25;;;;;;;15.69;65.13;100538.41;2196573;79;20969;-69
2022/09/03 05:36:23;;;;;;;5.95;3.02;;;;;;;16.13;64.60;100554.28;2164374;80;21499;-67
2022/09/03 05:39:28;;;;;;;4.60;3.12;;;;;;;16.24;63.47;100548.89;2191476;79;21120;-68
2022/09/03 05:42:34;;;;;;;6.10;3.20;;;;;;;16.00;62.59;100550.66;2192125;80;21003;-68
2022/09/03 05:45:40;;;;;;;4.62;2.52;;;;;;;15.49;62.15;100558.73;2184585;79;21113;-69
2022/09/03 05:48:49;;;;;;;8.05;3.30;;;;;;;15.20;62.13;100557.27;2135470;80;21452;-70
2022/09/03 05:51:58;;;;;;;3.20;2.70;;;;;;;14.85;61.61;100554.00;2146303;79;21006;-67
2022/09/03 05:55:00;;;;;;;5.72;3.05;;;;;;;15.12;62.22;100546.67;2159790;80;21043;-70
2022/09/03 05:58:02;;;;;;;5.55;2.60;;;;;;;15.63;62.16;100540.48;2187137;80;21054;-68
2022/09/03 06:01:13;;;;;;;5.90;3.02;;;;;;;16.23;61.72;100543.23;2187413;80;21006;-68
2022/09/03 06:04:15;;;;;;;5.10;2.90;;;;;;;16.76;59.78;100546.81;2196168;79;21564;-69
2022/09/03 06:07:16;;;;;;;12.33;3.02;;;;;;;17.22;60.19;100548.94;2161932;80;21449;-71
2022/09/03 06:10:18;;;;;;;7.15;3.10;;;;;;;17.62;59.37;100547.20;2193029;80;21512;-72
2022/09/03 06:13:19;;;;;;;5.30;3.05;;;;;;;17.74;56.95;100550.64;2189492;80;20986;-70
2022/09/03 06:16:21;;;;;;;9.48;3.47;;;;;;;17.32;56.45;100553.94;2187359;79;21494;-69
2022/09/03 06:19:22;;;;;;;5.60;2.80;;;;;;;16.96;57.05;100549.13;2161494;80;21026;-69
2022/09/03 06:22:27;;;;;;;6.45;3.05;;;;;;;16.63;57.34;100550.74;2187566;79;20966;-69
2022/09/03 06:25:26;;;;;;;7.60;3.02;;;;;;;16.28;56.71;100554.71;2193517;79;21033;-72
2022/09/03 06:28:27;;;;;;;5.35;3.30;;;;;;;16.23;57.40;100549.10;2191867;80;21009;-70
2022/09/03 06:31:28;;;;;;;9.83;2.90;;;;;;;16.35;57.53;100551.56;2167143;80;20999;-69
2022/09/03 06:34:30;;;;;;;5.83;2.80;;;;;;;16.91;57.76;100548.06;2190973;79;21448;-70
2022/09/03 06:37:31;;;;;;;4.28;3.02;;;;;;;17.36;56.50;100553.84;2192715;79;21457;-69
2022/09/03 06:40:32;;;;;;;7.10;3.33;;;;;;;17.47;56.19;100559.45;2190829;79;21011;-69
2022/09/03 06:43:36;;;;;;;5.95;2.90;;;;;;;17.23;55.26;100562.16;2192046;79;21025;-69
2022/09/03 06:46:46;;;;;;;5.55;3.08;;;;;;;17.26;54.69;100558.25;2168373;80;20991;-72
2022/09/03 06:49:43;;;;;;;5.58;2.95;;;;;;;16.95;53.84;100562.70;2188548;79;21073;-69
2022/09/03 06:52:55;;;;;;;4.47;2.87;;;;;;;16.88;54.28;100573.40;2182174;80;20963;-69
2022/09/03 06:56:01;;;;;;;5.85;3.10;;;;;;;17.07;54.67;100580.43;2192716;79;20950;-70
2022/09/03 06:59:09;;;;;;;6.33;3.37;;;;;;;16.92;54.08;100574.68;2185255;79;21029;-70
2022/09/03 07:02:11;;;;;;;7.22;3.37;;;;;;;17.23;54.79;100574.22;2167415;79;20975;-69
2022/09/03 07:05:14;;;;;;;8.38;2.90;;;;;;;17.66;54.04;100577.98;2189420;80;21027;-68
2022/09/03 07:08:24;;;;;;;5.75;2.75;;;;;;;17.79;53.36;100579.89;2134168;80;21018;-68
2022/09/03 07:11:35;;;;;;;4.28;2.75;;;;;;;17.70;52.65;100585.93;2187310;79;21108;-69
2022/09/03 07:14:40;;;;;;;7.08;2.90;;;;;;;18.09;53.94;100582.23;2114575;80;20983;-69
2022/09/03 07:17:48;;;;;;;3.87;2.75;;;;;;;18.63;53.06;100582.55;2162955;80;21025;-69
2022/09/03 07:20:54;;;;;;;8.43;3.25;;;;;;;18.69;52.44;100581.70;2166459;79;21014;-69
2022/09/03 07:23:57;;;;;;;6.28;3.00;;;;;;;19.11;52.21;100569.35;2189290;79;21086;-70
2022/09/03 07:27:04;;;;;;;7.90;3.05;;;;;;;19.18;51.18;100563.45;2145699;80;21030;-70
2022/09/03 07:30:17;;;;;;;4.72;3.35;;;;;;;19.42;51.69;100567.27;2190584;79;21599;-69
2022/09/03 07:33:18;;;;;;;7.03;3.40;;;;;;;19.57;50.64;100566.98;2158191;80;21003;-70
2022/09/03 07:36:29;;;;;;;8.15;3.27;;;;;;;19.69;50.29;100565.30;2188304;79;21077;-68
2022/09/03 07:39:42;;;;;;;5.15;2.80;;;;;;;19.75;50.14;100571.69;2130677;80;21507;-71
2022/09/03 07:42:50;;;;;;;6.17;3.37;;;;;;;19.96;49.56;100568.64;2159251;80;21013;-70
2022/09/03 07:46:03;;;;;;;4.57;3.20;;;;;;;20.05;49.66;100567.88;2162152;80;20990;-71
2022/09/03 07:49:18;;;;;;;6.40;3.77;;;;;;;20.17;48.39;100568.00;2187170;80;21477;-70
2022/09/03 07:52:31;;;;;;;8.40;3.90;;;;;;;19.82;48.82;100565.73;2138369;80;21553;-73
2022/09/03 07:55:47;;;;;;;10.10;4.17;;;;;;;20.05;49.01;100572.75;2187275;80;20982;-70
2022/09/03 07:58:55;;;;;;;6.92;3.90;;;;;;;20.28;48.88;100574.03;2180116;80;21070;-69
2022/09/03 08:02:01;;;;;;;9.15;4.72;;;;;;;20.75;48.49;100575.30;2160465;80;21038;-69
2022/09/03 08:05:19;;;;;;;9.85;4.03;;;;;;;20.85;48.59;100575.30;2164557;80;21001;-70
2022/09/03 08:08:34;;;;;;;10.72;4.20;;;;;;;21.11;48.39;100570.13;2144279;80;21038;-72
2022/09/03 08:11:39;;;;;;;9.80;4.92;;;;;;;21.08;48.04;100571.94;2189601;79;20983;-70
2022/09/03 08:14:40;;;;;;;12.73;4.20;;;;;;;21.34;47.95;100565.39;2193684;80;21002;-70
2022/09/03 08:17:43;;;;;;;9.35;4.17;;;;;;;21.26;47.07;100568.71;2189577;79;21077;-71
2022/09/03 08:20:45;;;;;;;11.20;4.58;;;;;;;21.21;46.50;100564.52;2169351;79;21005;-69
2022/09/03 08:23:49;;;;;;;8.15;4.08;;;;;;;21.16;46.76;100571.64;2185882;80;21465;-70
2022/09/03 08:26:52;;;;;;;11.28;3.83;;;;;;;21.35;47.36;100569.23;2184324;80;20989;-71
2022/09/03 08:29:53;;;;;;;12.85;4.47;;;;;;;21.67;47.01;100552.31;2188892;79;21522;-70
2022/09/03 08:32:54;;;;;;;10.48;4.30;;;;;;;21.78;45.68;100556.11;2192887;79;21493;-70
2022/09/03 08:35:55;;;;;;;7.35;3.60;;;;;;;21.74;45.75;100561.69;2192592;80;21057;-70
2022/09/03 08:39:02;;;;;;;6.00;3.37;;;;;;;21.79;46.73;100560.45;2192583;79;21429;-69
2022/09/03 08:42:24;;;;;;;7.17;3.70;;;;;;;21.63;45.68;100565.16;2192436;79;20991;-69
2022/09/03 08:45:26;;;;;;;7.28;3.75;;;;;;;21.51;46.51;100558.87;2150694;79;21019;-73
2022/09/03 08:48:28;;;;;;;9.08;3.60;;;;;;;21.87;46.66;100549.84;2190167;79;21021;-70
2022/09/03 08:51:32;;;;;;;7.40;3.67;;;;;;;22.07;44.66;100547.66;2192891;79;21194;-72
2022/09/03 08:54:35;;;;;;;5.30;3.65;;;;;;;21.81;44.41;100545.37;2188970;80;21009;-72
2022/09/03 08:57:51;;;;;;;6.10;3.52;;;;;;;21.74;46.41;100536.53;2187559;79;21476;-69
2022/09/03 09:01:10;;;;;;;9.28;3.70;;;;;;;22.10;45.15;100531.01;2164934;80;21000;-73
2022/09/03 09:04:44;;;;;;;5.10;3.62;;;;;;;22.07;45.00;100531.98;2163971;80;20922;-71
2022/09/03 09:07:59;;;;;;;8.55;3.42;;;;;;;21.94;44.22;100535.20;2186227;79;21067;-70
2022/09/03 09:11:24;;;;;;;8.75;3.85;;;;;;;21.97;45.07;100529.86;2180419;79;21038;-70
2022/09/03 09:14:47;;;;;;;8.98;4.45;;;;;;;22.16;44.74;100527.90;2183787;79;21026;-70
2022/09/03 09:18:38;;;;;;;6.33;3.72;;;;;;;22.25;44.27;100526.52;2147435;80;21002;-71
2022/09/03 09:21:55;;;;;;;7.15;3.75;;;;;;;22.54;44.31;100532.05;2192876;79;21117;-70
2022/09/03 09:25:17;;;;;;;5.45;3.52;;;;;;;22.38;42.70;100538.47;2168040;79;21014;-71
2022/09/03 09:28:27;;;;;;;15.08;4.40;;;;;;;21.99;42.01;100531.81;2157862;80;21144;-78
2022/09/03 09:31:36;;;;;;;6.67;4.30;;;;;;;21.80;42.24;100531.05;2157177;80;21006;-73
2022/09/03 09:34:52;;;;;;;7.40;3.62;;;;;;;21.74;43.78;100523.88;2163039;80;21053;-74
2022/09/03 09:38:02;;;;;;;6.22;3.72;;;;;;;21.94;43.12;100522.22;2140323;80;21463;-72
2022/09/03 09:41:22;;;;;;;7.92;4.60;;;;;;;21.82;43.31;100527.59;2162034;80;21527;-73
2022/09/03 09:44:27;;;;;;;9.23;3.77;;;;;;;21.77;43.19;100519.36;2155771;80;21505;-76
2022/09/03 09:47:41;;;;;;;7.50;3.52;;;;;;;21.87;43.48;100512.03;2169216;80;21015;-75
2022/09/03 09:50:48;;;;;;;7.87;4.00;;;;;;;22.23;43.47;100520.52;2142431;80;21045;-77
2022/09/03 09:57:26;;;;;;;5.90;3.90;;;;;;;22.40;42.56;100511.19;2140892;79;21006;-72
2022/09/03 10:00:36;;;;;;;6.33;3.85;;;;;;;22.26;42.71;100503.83;2164673;80;20975;-72
2022/09/03 10:04:01;;;;;;;7.47;3.62;;;;;;;22.08;42.74;100504.73;2163135;80;21058;-73
2022/09/03 10:07:31;;;;;;;7.08;3.40;;;;;;;22.27;42.69;100508.20;2159932;80;21068;-74
2022/09/03 10:10:46;;;;;;;6.87;4.08;;;;;;;22.23;42.54;100500.25;2161828;80;21013;-73
2022/09/03 10:14:02;;;;;;;7.30;3.22;;;;;;;22.22;42.25;100499.97;2162882;80;21017;-72
2022/09/03 10:17:27;;;;;;;9.60;3.45;;;;;;;22.14;42.08;100516.49;2163205;80;20998;-72
2022/09/03 10:21:05;;;;;;;6.30;3.62;;;;;;;21.74;41.65;100498.72;2155838;80;21009;-74
2022/09/03 10:24:46;;;;;;;7.87;3.62;;;;;;;21.42;42.42;100500.33;2186119;79;21046;-72
2022/09/03 10:27:53;;;;;;;7.97;3.37;;;;;;;21.26;42.45;100501.78;2189172;79;21424;-77
2022/09/03 10:31:41;;;;;;;5.33;3.95;;;;;;;20.77;43.51;100506.30;2135145;80;21005;-73
2022/09/03 10:35:13;;;;;;;8.68;3.75;;;;;;;21.11;43.60;100489.20;2189577;80;20960;-73
2022/09/03 10:38:39;;;;;;;5.15;3.70;;;;;;;21.25;43.06;100500.93;2179943;80;21030;-73
2022/09/03 10:42:16;;;;;;;9.45;3.98;;;;;;;20.68;43.62;100499.03;2156860;80;21369;-73
2022/09/03 10:46:04;;;;;;;5.17;3.00;;;;;;;20.53;44.13;100495.36;2114889;79;21001;-74
2022/09/03 10:49:56;;;;;;;5.90;3.72;;;;;;;21.10;44.08;100492.95;2189232;79;20995;-74
2022/09/03 10:53:20;;;;;;;8.88;3.87;;;;;;;21.39;44.20;100490.00;2163485;80;21531;-79
2022/09/03 10:57:08;;;;;;;8.03;3.62;;;;;;;21.31;43.14;100493.80;2166777;80;21026;-82
2022/09/03 11:00:24;;;;;;;9.65;3.65;;;;;;;21.25;43.84;100482.04;2172436;80;21494;-80
2022/09/03 11:03:53;;;;;;;7.47;3.52;;;;;;;21.53;43.99;100479.83;2149719;80;20975;-77
2022/09/03 11:07:07;;;;;;;5.55;3.08;;;;;;;21.57;43.48;100466.16;2168640;80;20953;-76
2022/09/03 11:10:29;;;;;;;13.75;3.05;;;;;;;21.66;42.63;100475.59;2163441;80;21027;-75
2022/09/03 11:14:12;;;;;;;5.12;3.33;;;;;;;21.80;41.92;100455.95;2184632;79;21113;-75
2022/09/03 11:17:41;;;;;;;6.10;3.35;;;;;;;21.72;41.41;100480.06;2107969;80;21059;-77
2022/09/03 11:20:48;;;;;;;5.55;3.08;;;;;;;21.62;41.60;100463.59;2192816;80;20994;-75
2022/09/03 11:24:11;;;;;;;7.95;3.30;;;;;;;21.72;41.99;100463.86;2190500;79;20978;-76
2022/09/03 11:27:25;;;;;;;7.08;2.92;;;;;;;21.74;42.91;100457.71;2176947;79;21036;-75
2022/09/03 11:30:57;;;;;;;6.40;3.37;;;;;;;22.01;42.60;100456.73;2186906;79;21492;-76
2022/09/03 11:34:15;;;;;;;4.20;2.98;;;;;;;22.28;42.96;100442.80;2181820;80;20969;-78
2022/09/03 11:37:26;;;;;;;4.97;3.30;;;;;;;22.65;40.88;100454.14;2185517;80;21015;-75
2022/09/03 11:40:37;;;;;;;6.87;2.85;;;;;;;22.32;40.42;100447.47;2194986;79;21042;-73
2022/09/03 11:43:39;;;;;;;6.72;3.70;;;;;;;22.29;40.80;100451.19;2161054;80;21497;-78
2022/09/03 11:46:42;;;;;;;7.12;3.72;;;;;;;22.11;40.76;100442.12;2183585;80;21025;-80
2022/09/03 11:49:50;;;;;;;5.03;2.87;;;;;;;21.69;41.20;100443.55;2187661;80;20974;-74
2022/09/03 11:53:15;;;;;;;9.40;3.50;;;;;;;21.15;41.71;100439.95;2182151;80;21541;-77
2022/09/03 11:56:26;;;;;;;11.88;3.42;;;;;;;21.17;42.95;100430.27;2164116;79;20966;-76
2022/09/03 11:59:26;;;;;;;6.78;3.45;;;;;;;21.49;43.29;100421.44;2182541;80;21034;-74
2022/09/03 12:02:34;;;;;;;11.03;3.87;;;;;;;21.52;42.72;100415.58;2183745;79;20951;-73
2022/09/03 12:06:06;;;;;;;8.05;3.17;;;;;;;21.71;42.15;100423.08;2186443;80;21077;-74
2022/09/03 12:09:55;;;;;;;8.70;2.90;;;;;;;21.83;42.75;100416.33;2188661;80;21081;-75
2022/09/03 12:13:39;;;;;;;9.05;5.65;;;;;;;22.24;42.65;100424.86;2187376;79;20955;-78
2022/09/03 12:17:03;;;;;;;5.33;2.98;;;;;;;22.22;41.56;100420.23;2163207;80;21021;-75
2022/09/03 12:20:14;;;;;;;9.58;4.08;;;;;;;22.13;40.67;100424.30;2185058;80;21066;-76
2022/09/03 12:23:44;;;;;;;6.20;2.85;;;;;;;22.10;41.69;100413.97;2185762;80;21002;-76
2022/09/03 12:26:45;;;;;;;5.78;3.22;;;;;;;22.05;40.86;100413.87;2190113;80;21039;-77
2022/09/03 12:29:58;;;;;;;4.87;3.12;;;;;;;22.05;41.66;100419.28;2189303;80;20986;-80
2022/09/03 12:33:06;;;;;;;7.15;2.70;;;;;;;22.04;40.58;100414.91;2188951;80;21020;-74
2022/09/03 12:36:12;;;;;;;4.35;3.00;;;;;;;22.01;41.16;100412.69;2185856;79;21007;-76
2022/09/03 12:39:26;;;;;;;12.73;3.72;;;;;;;21.96;40.99;100412.56;2199014;78;21084;-76
2022/09/03 12:42:29;;;;;;;9.68;3.47;;;;;;;21.89;40.86;100405.94;2185720;80;21565;-76
2022/09/03 12:45:31;;;;;;;9.35;3.20;;;;;;;21.98;40.95;100402.35;2192563;80;21501;-77
2022/09/03 12:48:32;;;;;;;8.60;3.65;;;;;;;21.82;40.97;100412.81;2165432;79;21006;-77
2022/09/03 12:51:39;;;;;;;5.53;2.85;;;;;;;21.79;40.78;100410.55;2168283;80;21021;-76
2022/09/03 12:55:03;;;;;;;5.55;3.02;;;;;;;21.51;41.52;100410.39;2191324;80;21632;-80
2022/09/03 12:58:36;;;;;;;6.25;3.37;;;;;;;21.41;41.76;100403.70;2178380;80;21071;-76
2022/09/03 13:01:50;;;;;;;5.35;2.92;;;;;;;21.29;42.06;100405.52;2187997;80;21575;-76
2022/09/03 13:04:51;;;;;;;6.28;3.15;;;;;;;21.45;42.16;100398.11;2192556;79;20979;-76
2022/09/03 13:07:56;;;;;;;7.92;3.02;;;;;;;21.19;41.75;100406.59;2167677;80;21053;-76
2022/09/03 13:11:02;;;;;;;5.72;2.72;;;;;;;20.90;41.74;100400.97;2187327;79;21041;-76
2022/09/03 13:14:09;;;;;;;5.55;2.58;;;;;;;20.90;42.54;100407.72;2185298;79;21007;-79
2022/09/03 13:17:21;;;;;;;5.60;2.80;;;;;;;21.09;41.97;100404.45;2190947;79;21023;-75
2022/09/03 13:20:30;;;;;;;7.92;3.30;;;;;;;21.12;42.55;100391.01;2187662;79;21521;-79
2022/09/03 13:24:01;;;;;;;7.97;2.95;;;;;;;21.10;42.55;100391.78;2186180;80;21117;-76
2022/09/03 13:27:34;;;;;;;4.92;2.85;;;;;;;20.92;42.26;100400.23;2186581;80;21038;-76
2022/09/03 13:31:05;;;;;;;3.20;2.58;;;;;;;20.78;42.83;100401.45;2186690;79;21006;-80
2022/09/03 13:34:18;;;;;;;5.28;3.45;;;;;;;20.68;43.36;100398.45;2187824;79;21018;-77
2022/09/03 13:37:41;;;;;;;4.10;3.05;;;;;;;20.59;43.32;100403.34;2131672;80;21003;-76
2022/09/03 13:41:20;;;;;;;5.72;2.87;;;;;;;20.48;43.52;100394.09;2189943;80;20954;-76
2022/09/03 13:44:41;;;;;;;4.85;3.35;;;;;;;20.57;43.84;100396.81;2118636;82;21546;-76
2022/09/03 13:51:30;;;;;;;7.03;3.10;;;;;;;20.49;43.99;100407.86;2184235;80;20987;-76
2022/09/03 13:54:46;;;;;;;4.80;3.30;;;;;;;20.63;44.14;100403.17;2191819;80;21031;-76
2022/09/03 13:58:01;;;;;;;5.12;3.00;;;;;;;20.80;43.28;100401.50;2189912;79;21045;-75
2022/09/03 14:01:28;;;;;;;6.72;3.02;;;;;;;20.76;43.45;100404.89;2184799;79;20983;-75
2022/09/03 14:05:02;;;;;;;4.80;3.20;;;;;;;20.77;43.60;100401.95;2186082;80;20989;-76
2022/09/03 14:08:23;;;;;;;5.17;3.52;;;;;;;20.86;44.58;100401.64;2190307;80;21022;-76
2022/09/03 14:12:13;;;;;;;5.00;3.22;;;;;;;20.63;44.30;100406.39;2188309;80;21433;-75
2022/09/03 14:15:31;;;;;;;6.12;3.35;;;;;;;20.52;44.43;100405.23;2186203;80;20956;-75
2022/09/03 14:19:10;;;;;;;6.72;3.12;;;;;;;20.50;44.78;100410.05;2186649;80;21069;-75
2022/09/03 14:22:23;;;;;;;5.10;3.70;;;;;;;20.37;45.48;100411.02;2190947;80;21073;-76
2022/09/03 14:25:27;;;;;;;6.05;3.30;;;;;;;20.24;45.58;100406.58;2185900;80;21070;-76
2022/09/03 14:28:39;;;;;;;6.35;3.25;;;;;;;20.22;45.82;100414.08;2190910;80;21097;-76
2022/09/03 14:32:05;;;;;;;5.40;3.00;;;;;;;20.26;46.21;100414.45;2186026;80;21015;-76
2022/09/03 14:35:48;;;;;;;5.47;3.22;;;;;;;20.15;46.23;100412.78;2183937;80;20971;-74
2022/09/03 14:39:29;;;;;;;8.25;3.65;;;;;;;20.01;46.71;100417.99;2186361;79;20996;-78
2022/09/03 14:43:00;;;;;;;8.98;3.40;;;;;;;19.89;46.90;100417.90;2184183;80;20981;-79
2022/09/03 14:46:31;;;;;;;6.55;3.15;;;;;;;19.81;47.35;100411.97;2188306;79;21023;-77
2022/09/03 14:49:56;;;;;;;8.50;3.05;;;;;;;19.86;47.68;100413.48;2186136;80;21069;-80
2022/09/03 14:53:43;;;;;;;5.85;3.52;;;;;;;19.72;48.02;100407.39;2187276;79;20990;-77
2022/09/03 14:57:32;;;;;;;7.35;3.90;;;;;;;19.69;48.27;100412.69;2183905;80;20944;-77
2022/09/03 15:01:01;;;;;;;5.35;3.65;;;;;;;19.59;48.61;100406.92;2183435;79;21489;-77
2022/09/03 15:04:28;;;;;;;7.30;3.33;;;;;;;19.65;49.03;100400.72;2184327;79;21544;-78
2022/09/03 15:07:47;;;;;;;6.50;3.80;;;;;;;19.75;49.41;100396.70;2190956;79;21042;-76
2022/09/03 15:11:00;;;;;;;5.35;3.87;;;;;;;19.89;49.01;100394.19;2172050;80;21038;-76